Mc Clellan-Palomar Airport Carlsbad US
ICAO: KCRQ
IATA: CRQ
Category: Medium
Scheduled Services: No

Elevation: 331 ft
TransAlt. 18000 ft.

Airport Communications:
SOCAL APP/DEP:127.3
ATIS:120.15
CLNC DEL:134.85
CTAF:118.6
GND:121.8
SAN DIEGO RDO:115.3
TWR:118.6

KCRQ Zoom In..

Runways:

(A) RW 06 length 4897 ft width 150 ft
---- / hdg 65

(B) RW 24 length 4897 ft width 150 ft
ILS 108.70 / hdg 245

Location; KCRQ
Day. 29 / Time. 23.53 Zulu
* Altimeter: 30.06
* Temperature: 16° c. 60.8°f.
* Wind from: 250° Speed 09 kn.
Dewpoint: 09° c.
Visibility: 10 Statute Miles.
Clouds: Clear (automated report).

KCRQ 292353Z 25009KT 10SM CLR 16/09 A3006 RMK AO2 SLP179 T01610089 10167 20150 56009 $


Wind From 250°
Speed 09 kn.

 
 
jpsmedia worldairports.se 2020   terms of use